sensor_id;sensor_type;location;lat;lon;timestamp;P1;P2;P0
55549;PMS7003;41397;49.972;18.944;2023-05-21T00:01:05;25;25;17
55549;PMS7003;41397;49.972;18.944;2023-05-21T00:04:11;28;25;18
55549;PMS7003;41397;49.972;18.944;2023-05-21T00:07:15;33;27;16
55549;PMS7003;41397;49.972;18.944;2023-05-21T00:10:19;29;27;19
55549;PMS7003;41397;49.972;18.944;2023-05-21T00:13:21;23;22;16
55549;PMS7003;41397;49.972;18.944;2023-05-21T00:16:23;25;24;17
55549;PMS7003;41397;49.972;18.944;2023-05-21T00:19:25;28;26;17
55549;PMS7003;41397;49.972;18.944;2023-05-21T00:22:27;25;25;17
55549;PMS7003;41397;49.972;18.944;2023-05-21T00:25:28;32;28;18
55549;PMS7003;41397;49.972;18.944;2023-05-21T00:28:31;30;27;18
55549;PMS7003;41397;49.972;18.944;2023-05-21T00:31:32;23;23;17
55549;PMS7003;41397;49.972;18.944;2023-05-21T00:34:35;25;23;16
55549;PMS7003;41397;49.972;18.944;2023-05-21T00:37:37;28;26;19
55549;PMS7003;41397;49.972;18.944;2023-05-21T00:40:39;27;25;18
55549;PMS7003;41397;49.972;18.944;2023-05-21T00:43:41;30;27;18
55549;PMS7003;41397;49.972;18.944;2023-05-21T00:46:44;28;25;16
55549;PMS7003;41397;49.972;18.944;2023-05-21T00:49:53;32;29;18
55549;PMS7003;41397;49.972;18.944;2023-05-21T00:52:54;32;28;18
55549;PMS7003;41397;49.972;18.944;2023-05-21T00:55:56;25;24;17
55549;PMS7003;41397;49.972;18.944;2023-05-21T00:58:58;30;27;19
55549;PMS7003;41397;49.972;18.944;2023-05-21T01:01:59;26;25;17
55549;PMS7003;41397;49.972;18.944;2023-05-21T01:05:06;25;24;17
55549;PMS7003;41397;49.972;18.944;2023-05-21T01:08:07;22;21;16
55549;PMS7003;41397;49.972;18.944;2023-05-21T01:11:09;23;22;17
55549;PMS7003;41397;49.972;18.944;2023-05-21T01:14:11;30;27;18
55549;PMS7003;41397;49.972;18.944;2023-05-21T01:17:15;26;25;18
55549;PMS7003;41397;49.972;18.944;2023-05-21T01:20:17;29;26;18
55549;PMS7003;41397;49.972;18.944;2023-05-21T01:23:20;28;25;17
55549;PMS7003;41397;49.972;18.944;2023-05-21T01:26:21;35;30;19
55549;PMS7003;41397;49.972;18.944;2023-05-21T01:29:25;26;24;16
55549;PMS7003;41397;49.972;18.944;2023-05-21T01:35:41;30;27;18
55549;PMS7003;41397;49.972;18.944;2023-05-21T01:39:12;30;27;18
55549;PMS7003;41397;49.972;18.944;2023-05-21T01:42:02;32;28;19
55549;PMS7003;41397;49.972;18.944;2023-05-21T01:45:08;30;27;19
55549;PMS7003;41397;49.972;18.944;2023-05-21T01:48:11;33;29;20
55549;PMS7003;41397;49.972;18.944;2023-05-21T01:51:13;30;27;18
55549;PMS7003;41397;49.972;18.944;2023-05-21T01:54:14;29;24;18
55549;PMS7003;41397;49.972;18.944;2023-05-21T01:57:16;35;30;18
55549;PMS7003;41397;49.972;18.944;2023-05-21T02:00:18;29;26;17
55549;PMS7003;41397;49.972;18.944;2023-05-21T02:03:23;26;24;17
55549;PMS7003;41397;49.972;18.944;2023-05-21T02:06:27;22;21;15
55549;PMS7003;41397;49.972;18.944;2023-05-21T02:09:33;28;25;17
55549;PMS7003;41397;49.972;18.944;2023-05-21T02:12:35;26;24;17
55549;PMS7003;41397;49.972;18.944;2023-05-21T02:15:36;27;25;16
55549;PMS7003;41397;49.972;18.944;2023-05-21T02:18:39;31;27;19
55549;PMS7003;41397;49.972;18.944;2023-05-21T02:21:47;33;29;19
55549;PMS7003;41397;49.972;18.944;2023-05-21T02:24:48;29;26;18
55549;PMS7003;41397;49.972;18.944;2023-05-21T02:27:50;30;27;20
55549;PMS7003;41397;49.972;18.944;2023-05-21T02:30:56;31;28;19
55549;PMS7003;41397;49.972;18.944;2023-05-21T02:33:57;32;28;20
55549;PMS7003;41397;49.972;18.944;2023-05-21T02:36:59;28;25;18
55549;PMS7003;41397;49.972;18.944;2023-05-21T02:40:02;33;30;20
55549;PMS7003;41397;49.972;18.944;2023-05-21T02:43:05;39;33;21
55549;PMS7003;41397;49.972;18.944;2023-05-21T02:46:07;34;29;17
55549;PMS7003;41397;49.972;18.944;2023-05-21T02:49:08;24;23;16
55549;PMS7003;41397;49.972;18.944;2023-05-21T02:52:09;32;28;20
55549;PMS7003;41397;49.972;18.944;2023-05-21T02:55:11;32;27;19
55549;PMS7003;41397;49.972;18.944;2023-05-21T02:58:12;31;27;16
55549;PMS7003;41397;49.972;18.944;2023-05-21T03:01:14;29;26;16
55549;PMS7003;41397;49.972;18.944;2023-05-21T03:04:16;37;31;20
55549;PMS7003;41397;49.972;18.944;2023-05-21T03:07:21;37;31;20
55549;PMS7003;41397;49.972;18.944;2023-05-21T03:10:23;28;25;15
55549;PMS7003;41397;49.972;18.944;2023-05-21T03:13:25;30;26;17
55549;PMS7003;41397;49.972;18.944;2023-05-21T03:16:26;33;29;21
55549;PMS7003;41397;49.972;18.944;2023-05-21T03:19:28;27;24;18
55549;PMS7003;41397;49.972;18.944;2023-05-21T03:22:35;33;29;18
55549;PMS7003;41397;49.972;18.944;2023-05-21T03:25:40;31;27;18
55549;PMS7003;41397;49.972;18.944;2023-05-21T03:28:42;29;26;17
55549;PMS7003;41397;49.972;18.944;2023-05-21T03:31:44;29;26;17
55549;PMS7003;41397;49.972;18.944;2023-05-21T03:34:45;31;27;18
55549;PMS7003;41397;49.972;18.944;2023-05-21T03:37:48;34;29;20
55549;PMS7003;41397;49.972;18.944;2023-05-21T03:40:50;33;29;19
55549;PMS7003;41397;49.972;18.944;2023-05-21T03:43:51;30;27;18
55549;PMS7003;41397;49.972;18.944;2023-05-21T03:46:52;38;31;19
55549;PMS7003;41397;49.972;18.944;2023-05-21T03:49:56;39;34;21
55549;PMS7003;41397;49.972;18.944;2023-05-21T03:52:58;32;28;20
55549;PMS7003;41397;49.972;18.944;2023-05-21T03:55:59;34;30;20
55549;PMS7003;41397;49.972;18.944;2023-05-21T03:59:00;30;28;19
55549;PMS7003;41397;49.972;18.944;2023-05-21T04:02:04;38;33;22
55549;PMS7003;41397;49.972;18.944;2023-05-21T04:05:06;44;37;22
55549;PMS7003;41397;49.972;18.944;2023-05-21T04:08:08;33;30;21
55549;PMS7003;41397;49.972;18.944;2023-05-21T04:11:10;29;27;20
55549;PMS7003;41397;49.972;18.944;2023-05-21T04:14:12;34;30;20
55549;PMS7003;41397;49.972;18.944;2023-05-21T04:17:14;41;35;24
55549;PMS7003;41397;49.972;18.944;2023-05-21T04:20:15;27;26;18
55549;PMS7003;41397;49.972;18.944;2023-05-21T04:23:17;38;34;23
55549;PMS7003;41397;49.972;18.944;2023-05-21T04:26:20;30;28;21
55549;PMS7003;41397;49.972;18.944;2023-05-21T04:29:23;41;34;22
55549;PMS7003;41397;49.972;18.944;2023-05-21T04:32:26;34;31;23
55549;PMS7003;41397;49.972;18.944;2023-05-21T04:35:34;38;34;23
55549;PMS7003;41397;49.972;18.944;2023-05-21T04:38:35;35;31;21
55549;PMS7003;41397;49.972;18.944;2023-05-21T04:41:39;37;32;21
55549;PMS7003;41397;49.972;18.944;2023-05-21T04:44:40;36;32;21
55549;PMS7003;41397;49.972;18.944;2023-05-21T04:47:44;38;34;22
55549;PMS7003;41397;49.972;18.944;2023-05-21T04:50:45;31;29;20
55549;PMS7003;41397;49.972;18.944;2023-05-21T04:53:47;34;31;22
55549;PMS7003;41397;49.972;18.944;2023-05-21T04:56:49;31;29;20
55549;PMS7003;41397;49.972;18.944;2023-05-21T04:59:50;41;36;24
55549;PMS7003;41397;49.972;18.944;2023-05-21T05:02:52;32;30;22
55549;PMS7003;41397;49.972;18.944;2023-05-21T05:05:53;34;31;20
55549;PMS7003;41397;49.972;18.944;2023-05-21T05:08:55;29;28;22
55549;PMS7003;41397;49.972;18.944;2023-05-21T05:11:57;37;34;24
55549;PMS7003;41397;49.972;18.944;2023-05-21T05:14:58;30;28;19
55549;PMS7003;41397;49.972;18.944;2023-05-21T05:18:00;35;32;23
55549;PMS7003;41397;49.972;18.944;2023-05-21T05:21:01;31;29;19
55549;PMS7003;41397;49.972;18.944;2023-05-21T05:24:03;31;29;21
55549;PMS7003;41397;49.972;18.944;2023-05-21T05:27:04;37;33;21
55549;PMS7003;41397;49.972;18.944;2023-05-21T05:30:06;22;22;18
55549;PMS7003;41397;49.972;18.944;2023-05-21T05:33:08;27;26;19
55549;PMS7003;41397;49.972;18.944;2023-05-21T05:36:10;32;29;20
55549;PMS7003;41397;49.972;18.944;2023-05-21T05:39:12;30;28;21
55549;PMS7003;41397;49.972;18.944;2023-05-21T05:42:13;29;28;20
55549;PMS7003;41397;49.972;18.944;2023-05-21T05:45:15;30;28;21
55549;PMS7003;41397;49.972;18.944;2023-05-21T05:48:16;27;26;19
55549;PMS7003;41397;49.972;18.944;2023-05-21T05:51:18;29;27;21
55549;PMS7003;41397;49.972;18.944;2023-05-21T05:54:19;36;33;20
55549;PMS7003;41397;49.972;18.944;2023-05-21T05:57:20;30;28;18
55549;PMS7003;41397;49.972;18.944;2023-05-21T06:00:22;25;24;16
55549;PMS7003;41397;49.972;18.944;2023-05-21T06:03:24;34;31;21
55549;PMS7003;41397;49.972;18.944;2023-05-21T06:06:26;25;25;19
55549;PMS7003;41397;49.972;18.944;2023-05-21T06:09:27;27;25;19
55549;PMS7003;41397;49.972;18.944;2023-05-21T06:12:28;28;27;21
55549;PMS7003;41397;49.972;18.944;2023-05-21T06:15:32;22;22;15
55549;PMS7003;41397;49.972;18.944;2023-05-21T06:18:33;25;24;17
55549;PMS7003;41397;49.972;18.944;2023-05-21T06:21:34;22;22;17
55549;PMS7003;41397;49.972;18.944;2023-05-21T06:24:36;26;25;19
55549;PMS7003;41397;49.972;18.944;2023-05-21T06:27:39;19;19;13
55549;PMS7003;41397;49.972;18.944;2023-05-21T06:30:41;21;21;17
55549;PMS7003;41397;49.972;18.944;2023-05-21T06:33:42;24;23;18
55549;PMS7003;41397;49.972;18.944;2023-05-21T06:36:44;24;23;16
55549;PMS7003;41397;49.972;18.944;2023-05-21T06:39:47;19;19;12
55549;PMS7003;41397;49.972;18.944;2023-05-21T06:42:51;23;23;17
55549;PMS7003;41397;49.972;18.944;2023-05-21T06:45:52;22;22;15
55549;PMS7003;41397;49.972;18.944;2023-05-21T06:48:53;25;25;20
55549;PMS7003;41397;49.972;18.944;2023-05-21T06:52:00;19;19;15
55549;PMS7003;41397;49.972;18.944;2023-05-21T06:55:03;20;20;14
55549;PMS7003;41397;49.972;18.944;2023-05-21T06:58:05;17;17;13
55549;PMS7003;41397;49.972;18.944;2023-05-21T07:01:07;17;17;16
55549;PMS7003;41397;49.972;18.944;2023-05-21T07:04:09;20;20;15
55549;PMS7003;41397;49.972;18.944;2023-05-21T07:07:11;19;19;14
55549;PMS7003;41397;49.972;18.944;2023-05-21T07:10:15;24;23;15
55549;PMS7003;41397;49.972;18.944;2023-05-21T07:13:17;23;23;16
55549;PMS7003;41397;49.972;18.944;2023-05-21T07:16:18;22;22;16
55549;PMS7003;41397;49.972;18.944;2023-05-21T07:19:19;20;20;16
55549;PMS7003;41397;49.972;18.944;2023-05-21T07:22:21;22;22;16
55549;PMS7003;41397;49.972;18.944;2023-05-21T07:25:22;18;18;15
55549;PMS7003;41397;49.972;18.944;2023-05-21T07:28:24;17;17;12
55549;PMS7003;41397;49.972;18.944;2023-05-21T07:31:25;19;19;16
55549;PMS7003;41397;49.972;18.944;2023-05-21T07:34:27;15;15;12
55549;PMS7003;41397;49.972;18.944;2023-05-21T07:37:29;21;21;14
55549;PMS7003;41397;49.972;18.944;2023-05-21T07:40:30;17;17;13
55549;PMS7003;41397;49.972;18.944;2023-05-21T07:43:32;21;21;17
55549;PMS7003;41397;49.972;18.944;2023-05-21T07:46:33;17;17;14
55549;PMS7003;41397;49.972;18.944;2023-05-21T07:49:35;13;13;12
55549;PMS7003;41397;49.972;18.944;2023-05-21T07:52:36;16;16;12
55549;PMS7003;41397;49.972;18.944;2023-05-21T07:55:38;18;18;12
55549;PMS7003;41397;49.972;18.944;2023-05-21T07:58:47;11;11;10
55549;PMS7003;41397;49.972;18.944;2023-05-21T08:01:48;18;18;13
55549;PMS7003;41397;49.972;18.944;2023-05-21T08:04:49;17;17;16
55549;PMS7003;41397;49.972;18.944;2023-05-21T08:07:52;14;14;12
55549;PMS7003;41397;49.972;18.944;2023-05-21T08:10:53;20;15;12
55549;PMS7003;41397;49.972;18.944;2023-05-21T08:13:55;14;14;12
55549;PMS7003;41397;49.972;18.944;2023-05-21T08:16:57;14;14;10
55549;PMS7003;41397;49.972;18.944;2023-05-21T08:19:58;17;17;13
55549;PMS7003;41397;49.972;18.944;2023-05-21T08:23:00;16;16;13
55549;PMS7003;41397;49.972;18.944;2023-05-21T08:26:13;10;10;9
55549;PMS7003;41397;49.972;18.944;2023-05-21T08:29:17;13;13;10
55549;PMS7003;41397;49.972;18.944;2023-05-21T08:32:18;15;15;13
55549;PMS7003;41397;49.972;18.944;2023-05-21T08:35:20;17;17;14
55549;PMS7003;41397;49.972;18.944;2023-05-21T08:38:21;14;14;11
55549;PMS7003;41397;49.972;18.944;2023-05-21T08:41:23;14;14;10
55549;PMS7003;41397;49.972;18.944;2023-05-21T08:44:26;13;13;11
55549;PMS7003;41397;49.972;18.944;2023-05-21T08:47:34;6;6;5
55549;PMS7003;41397;49.972;18.944;2023-05-21T08:50:36;12;12;9
55549;PMS7003;41397;49.972;18.944;2023-05-21T08:53:38;14;14;11
55549;PMS7003;41397;49.972;18.944;2023-05-21T08:56:40;14;14;11
55549;PMS7003;41397;49.972;18.944;2023-05-21T08:59:50;15;15;12
55549;PMS7003;41397;49.972;18.944;2023-05-21T09:02:52;16;13;11
55549;PMS7003;41397;49.972;18.944;2023-05-21T09:05:55;10;10;10
55549;PMS7003;41397;49.972;18.944;2023-05-21T09:09:01;10;10;8
55549;PMS7003;41397;49.972;18.944;2023-05-21T09:12:10;9;9;6
55549;PMS7003;41397;49.972;18.944;2023-05-21T09:15:16;8;8;8
55549;PMS7003;41397;49.972;18.944;2023-05-21T09:18:18;15;15;11
55549;PMS7003;41397;49.972;18.944;2023-05-21T09:21:23;8;8;7
55549;PMS7003;41397;49.972;18.944;2023-05-21T09:24:29;9;9;8
55549;PMS7003;41397;49.972;18.944;2023-05-21T09:27:31;11;11;11
55549;PMS7003;41397;49.972;18.944;2023-05-21T09:30:33;6;6;5
55549;PMS7003;41397;49.972;18.944;2023-05-21T09:33:35;11;11;11
55549;PMS7003;41397;49.972;18.944;2023-05-21T09:36:48;6;6;4
55549;PMS7003;41397;49.972;18.944;2023-05-21T09:39:50;12;12;9
55549;PMS7003;41397;49.972;18.944;2023-05-21T09:42:52;9;9;7
55549;PMS7003;41397;49.972;18.944;2023-05-21T09:45:55;10;10;9
55549;PMS7003;41397;49.972;18.944;2023-05-21T09:48:56;8;8;6
55549;PMS7003;41397;49.972;18.944;2023-05-21T09:51:58;9;9;8
55549;PMS7003;41397;49.972;18.944;2023-05-21T09:54:59;8;8;8
55549;PMS7003;41397;49.972;18.944;2023-05-21T09:58:02;8;8;7
55549;PMS7003;41397;49.972;18.944;2023-05-21T10:01:05;6;6;5
55549;PMS7003;41397;49.972;18.944;2023-05-21T10:04:08;6;6;6
55549;PMS7003;41397;49.972;18.944;2023-05-21T10:07:10;5;5;5
55549;PMS7003;41397;49.972;18.944;2023-05-21T10:10:11;6;6;5
55549;PMS7003;41397;49.972;18.944;2023-05-21T10:13:17;6;6;5
55549;PMS7003;41397;49.972;18.944;2023-05-21T10:16:21;8;8;7
55549;PMS7003;41397;49.972;18.944;2023-05-21T10:19:23;7;7;5
55549;PMS7003;41397;49.972;18.944;2023-05-21T10:22:25;9;9;7
55549;PMS7003;41397;49.972;18.944;2023-05-21T10:25:28;5;5;4
55549;PMS7003;41397;49.972;18.944;2023-05-21T10:28:31;5;5;4
55549;PMS7003;41397;49.972;18.944;2023-05-21T10:31:33;8;8;7
55549;PMS7003;41397;49.972;18.944;2023-05-21T10:34:45;7;7;6
55549;PMS7003;41397;49.972;18.944;2023-05-21T10:37:48;9;9;8
55549;PMS7003;41397;49.972;18.944;2023-05-21T10:40:51;6;6;5
55549;PMS7003;41397;49.972;18.944;2023-05-21T11:00:04;6;6;5
55549;PMS7003;41397;49.972;18.944;2023-05-21T11:03:07;3;3;3
55549;PMS7003;41397;49.972;18.944;2023-05-21T11:06:20;5;5;4
55549;PMS7003;41397;49.972;18.944;2023-05-21T11:09:24;5;5;3
55549;PMS7003;41397;49.972;18.944;2023-05-21T11:12:27;4;4;4
55549;PMS7003;41397;49.972;18.944;2023-05-21T11:16:01;4;4;3
55549;PMS7003;41397;49.972;18.944;2023-05-21T11:21:57;6;6;4
55549;PMS7003;41397;49.972;18.944;2023-05-21T11:24:59;5;5;5
55549;PMS7003;41397;49.972;18.944;2023-05-21T11:28:05;6;6;6
55549;PMS7003;41397;49.972;18.944;2023-05-21T11:34:23;4;4;4
55549;PMS7003;41397;49.972;18.944;2023-05-21T11:37:33;2;2;2
55549;PMS7003;41397;49.972;18.944;2023-05-21T11:43:59;4;4;3
55549;PMS7003;41397;49.972;18.944;2023-05-21T11:47:02;7;7;6
55549;PMS7003;41397;49.972;18.944;2023-05-21T11:50:05;4;4;4
55549;PMS7003;41397;49.972;18.944;2023-05-21T11:53:15;3;3;3
55549;PMS7003;41397;49.972;18.944;2023-05-21T11:56:16;5;5;5
55549;PMS7003;41397;49.972;18.944;2023-05-21T11:59:19;1;1;1
55549;PMS7003;41397;49.972;18.944;2023-05-21T12:02:21;5;5;5
55549;PMS7003;41397;49.972;18.944;2023-05-21T12:05:22;2;2;2
55549;PMS7003;41397;49.972;18.944;2023-05-21T12:08:24;5;5;5
55549;PMS7003;41397;49.972;18.944;2023-05-21T12:11:26;3;3;3
55549;PMS7003;41397;49.972;18.944;2023-05-21T12:14:28;4;4;2
55549;PMS7003;41397;49.972;18.944;2023-05-21T12:17:29;5;5;4
55549;PMS7003;41397;49.972;18.944;2023-05-21T12:20:32;4;4;3
55549;PMS7003;41397;49.972;18.944;2023-05-21T12:23:33;6;6;4
55549;PMS7003;41397;49.972;18.944;2023-05-21T12:26:36;6;6;5
55549;PMS7003;41397;49.972;18.944;2023-05-21T12:29:38;9;9;7
55549;PMS7003;41397;49.972;18.944;2023-05-21T12:32:42;2;2;2
55549;PMS7003;41397;49.972;18.944;2023-05-21T12:35:44;7;7;6
55549;PMS7003;41397;49.972;18.944;2023-05-21T12:38:49;4;4;4
55549;PMS7003;41397;49.972;18.944;2023-05-21T12:41:53;7;7;6
55549;PMS7003;41397;49.972;18.944;2023-05-21T12:44:57;2;2;2
55549;PMS7003;41397;49.972;18.944;2023-05-21T12:48:02;5;5;5
55549;PMS7003;41397;49.972;18.944;2023-05-21T12:51:04;7;7;6
55549;PMS7003;41397;49.972;18.944;2023-05-21T12:54:14;8;8;7
55549;PMS7003;41397;49.972;18.944;2023-05-21T12:57:14;8;8;7
55549;PMS7003;41397;49.972;18.944;2023-05-21T13:00:22;7;7;5
55549;PMS7003;41397;49.972;18.944;2023-05-21T13:03:25;7;7;6
55549;PMS7003;41397;49.972;18.944;2023-05-21T13:06:26;7;7;7
55549;PMS7003;41397;49.972;18.944;2023-05-21T13:09:28;9;9;8
55549;PMS7003;41397;49.972;18.944;2023-05-21T13:12:29;7;7;6
55549;PMS7003;41397;49.972;18.944;2023-05-21T13:15:32;5;5;4
55549;PMS7003;41397;49.972;18.944;2023-05-21T13:18:34;7;7;6
55549;PMS7003;41397;49.972;18.944;2023-05-21T13:21:35;9;9;8
55549;PMS7003;41397;49.972;18.944;2023-05-21T13:24:37;11;11;6
55549;PMS7003;41397;49.972;18.944;2023-05-21T13:27:40;8;8;6
55549;PMS7003;41397;49.972;18.944;2023-05-21T13:30:42;5;5;4
55549;PMS7003;41397;49.972;18.944;2023-05-21T13:33:44;9;9;8
55549;PMS7003;41397;49.972;18.944;2023-05-21T13:36:45;8;8;6
55549;PMS7003;41397;49.972;18.944;2023-05-21T13:39:47;8;8;6
55549;PMS7003;41397;49.972;18.944;2023-05-21T13:42:48;5;5;4
55549;PMS7003;41397;49.972;18.944;2023-05-21T13:45:50;8;8;7
55549;PMS7003;41397;49.972;18.944;2023-05-21T13:48:52;5;5;4
55549;PMS7003;41397;49.972;18.944;2023-05-21T13:51:53;7;7;5
55549;PMS7003;41397;49.972;18.944;2023-05-21T13:54:55;7;7;5
55549;PMS7003;41397;49.972;18.944;2023-05-21T13:57:56;7;7;6
55549;PMS7003;41397;49.972;18.944;2023-05-21T14:00:57;6;6;5
55549;PMS7003;41397;49.972;18.944;2023-05-21T14:03:59;7;7;6
55549;PMS7003;41397;49.972;18.944;2023-05-21T14:07:05;7;7;6
55549;PMS7003;41397;49.972;18.944;2023-05-21T14:10:07;6;6;5
55549;PMS7003;41397;49.972;18.944;2023-05-21T14:13:09;4;4;4
55549;PMS7003;41397;49.972;18.944;2023-05-21T14:16:10;8;8;7
55549;PMS7003;41397;49.972;18.944;2023-05-21T14:19:11;8;8;7
55549;PMS7003;41397;49.972;18.944;2023-05-21T14:22:13;5;5;4
55549;PMS7003;41397;49.972;18.944;2023-05-21T14:25:14;6;6;5
55549;PMS7003;41397;49.972;18.944;2023-05-21T14:28:15;5;5;4
55549;PMS7003;41397;49.972;18.944;2023-05-21T14:31:17;8;4;3
55549;PMS7003;41397;49.972;18.944;2023-05-21T14:34:18;6;6;5
55549;PMS7003;41397;49.972;18.944;2023-05-21T14:37:20;9;9;7
55549;PMS7003;41397;49.972;18.944;2023-05-21T14:40:21;5;5;5
55549;PMS7003;41397;49.972;18.944;2023-05-21T14:43:23;9;9;7
55549;PMS7003;41397;49.972;18.944;2023-05-21T14:46:24;7;7;6
55549;PMS7003;41397;49.972;18.944;2023-05-21T14:49:25;7;7;6
55549;PMS7003;41397;49.972;18.944;2023-05-21T14:52:27;6;6;5
55549;PMS7003;41397;49.972;18.944;2023-05-21T14:55:28;8;8;7
55549;PMS7003;41397;49.972;18.944;2023-05-21T14:58:32;6;6;6
55549;PMS7003;41397;49.972;18.944;2023-05-21T15:01:34;8;8;5
55549;PMS7003;41397;49.972;18.944;2023-05-21T15:04:35;5;5;4
55549;PMS7003;41397;49.972;18.944;2023-05-21T15:07:36;8;8;6
55549;PMS7003;41397;49.972;18.944;2023-05-21T15:10:38;5;5;4
55549;PMS7003;41397;49.972;18.944;2023-05-21T15:13:40;4;4;2
55549;PMS7003;41397;49.972;18.944;2023-05-21T15:16:41;6;6;5
55549;PMS7003;41397;49.972;18.944;2023-05-21T15:19:43;9;9;8
55549;PMS7003;41397;49.972;18.944;2023-05-21T15:22:45;6;6;5
55549;PMS7003;41397;49.972;18.944;2023-05-21T15:25:47;8;8;7
55549;PMS7003;41397;49.972;18.944;2023-05-21T15:28:48;7;7;6
55549;PMS7003;41397;49.972;18.944;2023-05-21T15:31:50;5;5;5
55549;PMS7003;41397;49.972;18.944;2023-05-21T15:34:53;8;8;5
55549;PMS7003;41397;49.972;18.944;2023-05-21T15:37:54;6;6;4
55549;PMS7003;41397;49.972;18.944;2023-05-21T15:40:56;6;6;5
55549;PMS7003;41397;49.972;18.944;2023-05-21T15:43:57;3;3;2
55549;PMS7003;41397;49.972;18.944;2023-05-21T15:47:01;7;7;6
55549;PMS7003;41397;49.972;18.944;2023-05-21T15:50:02;5;5;5
55549;PMS7003;41397;49.972;18.944;2023-05-21T15:53:04;3;3;3
55549;PMS7003;41397;49.972;18.944;2023-05-21T15:56:05;4;4;4
55549;PMS7003;41397;49.972;18.944;2023-05-21T15:59:09;4;4;4
55549;PMS7003;41397;49.972;18.944;2023-05-21T16:02:10;5;5;5
55549;PMS7003;41397;49.972;18.944;2023-05-21T16:05:12;3;3;3
55549;PMS7003;41397;49.972;18.944;2023-05-21T16:08:13;6;6;4
55549;PMS7003;41397;49.972;18.944;2023-05-21T16:11:16;4;4;4
55549;PMS7003;41397;49.972;18.944;2023-05-21T16:14:18;4;4;3
55549;PMS7003;41397;49.972;18.944;2023-05-21T16:17:19;4;4;4
55549;PMS7003;41397;49.972;18.944;2023-05-21T16:20:21;5;5;5
55549;PMS7003;41397;49.972;18.944;2023-05-21T16:23:24;4;4;3
55549;PMS7003;41397;49.972;18.944;2023-05-21T16:26:26;5;5;5
55549;PMS7003;41397;49.972;18.944;2023-05-21T16:29:27;6;6;5
55549;PMS7003;41397;49.972;18.944;2023-05-21T16:32:28;3;3;3
55549;PMS7003;41397;49.972;18.944;2023-05-21T16:35:32;5;5;4
55549;PMS7003;41397;49.972;18.944;2023-05-21T16:38:33;6;6;5
55549;PMS7003;41397;49.972;18.944;2023-05-21T16:43:14;6;6;6
55549;PMS7003;41397;49.972;18.944;2023-05-21T16:46:16;6;6;5
55549;PMS7003;41397;49.972;18.944;2023-05-21T16:49:17;7;7;6
55549;PMS7003;41397;49.972;18.944;2023-05-21T16:52:21;4;4;4
55549;PMS7003;41397;49.972;18.944;2023-05-21T16:55:23;5;5;5
55549;PMS7003;41397;49.972;18.944;2023-05-21T16:58:25;6;6;5
55549;PMS7003;41397;49.972;18.944;2023-05-21T17:01:26;5;5;4
55549;PMS7003;41397;49.972;18.944;2023-05-21T17:04:29;5;5;5
55549;PMS7003;41397;49.972;18.944;2023-05-21T17:07:30;3;3;3
55549;PMS7003;41397;49.972;18.944;2023-05-21T17:10:32;10;10;6
55549;PMS7003;41397;49.972;18.944;2023-05-21T17:13:33;10;10;8
55549;PMS7003;41397;49.972;18.944;2023-05-21T17:16:37;3;3;3
55549;PMS7003;41397;49.972;18.944;2023-05-21T17:19:42;4;4;3
55549;PMS7003;41397;49.972;18.944;2023-05-21T17:22:44;7;7;6
55549;PMS7003;41397;49.972;18.944;2023-05-21T17:25:45;9;9;6
55549;PMS7003;41397;49.972;18.944;2023-05-21T17:28:47;4;4;4
55549;PMS7003;41397;49.972;18.944;2023-05-21T17:31:48;8;8;7
55549;PMS7003;41397;49.972;18.944;2023-05-21T17:34:50;6;6;6
55549;PMS7003;41397;49.972;18.944;2023-05-21T17:37:53;6;6;5
55549;PMS7003;41397;49.972;18.944;2023-05-21T17:40:54;6;6;6
55549;PMS7003;41397;49.972;18.944;2023-05-21T17:43:57;3;3;2
55549;PMS7003;41397;49.972;18.944;2023-05-21T17:46:59;8;8;5
55549;PMS7003;41397;49.972;18.944;2023-05-21T17:50:01;11;11;9
55549;PMS7003;41397;49.972;18.944;2023-05-21T17:53:02;12;12;9
55549;PMS7003;41397;49.972;18.944;2023-05-21T17:56:04;7;7;7
55549;PMS7003;41397;49.972;18.944;2023-05-21T17:59:07;7;7;5
55549;PMS7003;41397;49.972;18.944;2023-05-21T18:02:09;8;8;7
55549;PMS7003;41397;49.972;18.944;2023-05-21T18:05:11;7;7;7
55549;PMS7003;41397;49.972;18.944;2023-05-21T18:08:13;8;8;8
55549;PMS7003;41397;49.972;18.944;2023-05-21T18:11:15;8;8;7
55549;PMS7003;41397;49.972;18.944;2023-05-21T18:14:16;8;8;6
55549;PMS7003;41397;49.972;18.944;2023-05-21T18:17:18;8;8;6
55549;PMS7003;41397;49.972;18.944;2023-05-21T18:20:19;10;10;8
55549;PMS7003;41397;49.972;18.944;2023-05-21T18:23:21;11;11;9
55549;PMS7003;41397;49.972;18.944;2023-05-21T18:26:22;7;7;6
55549;PMS7003;41397;49.972;18.944;2023-05-21T18:29:25;21;12;10
55549;PMS7003;41397;49.972;18.944;2023-05-21T18:32:27;13;13;10
55549;PMS7003;41397;49.972;18.944;2023-05-21T18:35:29;7;7;6
55549;PMS7003;41397;49.972;18.944;2023-05-21T18:38:31;8;8;8
55549;PMS7003;41397;49.972;18.944;2023-05-21T18:41:33;8;8;6
55549;PMS7003;41397;49.972;18.944;2023-05-21T18:44:35;8;8;5
55549;PMS7003;41397;49.972;18.944;2023-05-21T18:47:36;8;8;6
55549;PMS7003;41397;49.972;18.944;2023-05-21T18:50:40;11;11;10
55549;PMS7003;41397;49.972;18.944;2023-05-21T18:53:42;11;11;10
55549;PMS7003;41397;49.972;18.944;2023-05-21T18:56:43;8;8;8
55549;PMS7003;41397;49.972;18.944;2023-05-21T18:59:44;10;10;9
55549;PMS7003;41397;49.972;18.944;2023-05-21T19:02:46;12;12;10
55549;PMS7003;41397;49.972;18.944;2023-05-21T19:05:47;10;10;9
55549;PMS7003;41397;49.972;18.944;2023-05-21T19:08:49;5;5;4
55549;PMS7003;41397;49.972;18.944;2023-05-21T19:11:50;10;10;9
55549;PMS7003;41397;49.972;18.944;2023-05-21T19:14:52;12;12;10
55549;PMS7003;41397;49.972;18.944;2023-05-21T19:17:54;7;7;7
55549;PMS7003;41397;49.972;18.944;2023-05-21T19:20:56;7;7;6
55549;PMS7003;41397;49.972;18.944;2023-05-21T19:24:01;13;13;11
55549;PMS7003;41397;49.972;18.944;2023-05-21T19:27:03;11;11;8
55549;PMS7003;41397;49.972;18.944;2023-05-21T19:30:05;11;11;8
55549;PMS7003;41397;49.972;18.944;2023-05-21T19:33:09;9;9;8
55549;PMS7003;41397;49.972;18.944;2023-05-21T19:39:21;6;6;5
55549;PMS7003;41397;49.972;18.944;2023-05-21T19:42:23;9;9;9
55549;PMS7003;41397;49.972;18.944;2023-05-21T19:45:29;9;9;6
55549;PMS7003;41397;49.972;18.944;2023-05-21T19:48:30;7;7;7
55549;PMS7003;41397;49.972;18.944;2023-05-21T19:51:31;11;11;11
55549;PMS7003;41397;49.972;18.944;2023-05-21T19:54:33;8;8;6
55549;PMS7003;41397;49.972;18.944;2023-05-21T19:57:36;8;8;6
55549;PMS7003;41397;49.972;18.944;2023-05-21T20:00:39;11;11;10
55549;PMS7003;41397;49.972;18.944;2023-05-21T20:03:44;12;12;8
55549;PMS7003;41397;49.972;18.944;2023-05-21T20:06:45;9;9;8
55549;PMS7003;41397;49.972;18.944;2023-05-21T20:09:49;10;10;9
55549;PMS7003;41397;49.972;18.944;2023-05-21T20:12:52;7;7;6
55549;PMS7003;41397;49.972;18.944;2023-05-21T20:15:53;8;8;7